Time;durP1;ratioP1;P1;durP2;ratioP2;P2;SDS_P1;SDS_P2;PMS_P1;PMS_P2;Temp;Humidity;BMP_temperature;BMP_pressure;BME280_temperature;BME280_humidity;BME280_pressure;Samples;Min_cycle;Max_cycle;Signal;HPM_P1;HPM_P2
2023/09/07 00:04:17;;;;;;;4.38;3.08;;;;;;;17.48;56.65;98473.69;10416438;28;20144;-66
2023/09/07 00:09:38;;;;;;;12.73;3.55;;;;;;;17.45;57.00;98465.09;10459035;28;20072;-66
2023/09/07 00:14:59;;;;;;;6.15;3.08;;;;;;;17.40;57.07;98463.44;10445076;28;20120;-66
2023/09/07 00:20:21;;;;;;;5.65;3.05;;;;;;;17.36;57.40;98463.19;10459879;28;20120;-66
2023/09/07 00:25:41;;;;;;;7.00;3.33;;;;;;;17.32;57.14;98474.28;10444667;28;20068;-65
2023/09/07 00:31:03;;;;;;;7.00;3.50;;;;;;;17.29;57.92;98474.81;10430636;28;20069;-66
2023/09/07 00:36:24;;;;;;;5.13;3.00;;;;;;;17.21;58.04;98477.19;10416696;28;20068;-66
2023/09/07 00:41:45;;;;;;;6.70;3.25;;;;;;;17.13;58.44;98483.13;10457863;28;20073;-67
2023/09/07 00:47:06;;;;;;;5.50;3.55;;;;;;;17.06;58.47;98482.06;10429432;28;20111;-67
2023/09/07 00:52:27;;;;;;;5.45;3.60;;;;;;;17.00;58.86;98484.59;10428754;28;20111;-67
2023/09/07 00:57:48;;;;;;;7.50;3.80;;;;;;;16.92;58.92;98480.59;10451560;28;20121;-67
2023/09/07 01:03:09;;;;;;;7.80;3.78;;;;;;;16.79;59.29;98477.13;10444717;28;20049;-67
2023/09/07 01:08:36;;;;;;;5.70;3.83;;;;;;;16.70;59.63;98475.19;10456388;28;20094;-67
2023/09/07 01:13:58;;;;;;;7.20;4.00;;;;;;;16.65;59.89;98473.47;10470190;28;20122;-67
2023/09/07 01:19:19;;;;;;;7.68;3.80;;;;;;;16.58;60.18;98480.13;10488851;28;20499;-67
2023/09/07 01:24:40;;;;;;;6.20;3.58;;;;;;;16.54;60.23;98466.53;10428054;28;20064;-67
2023/09/07 01:30:02;;;;;;;6.25;3.47;;;;;;;16.44;60.54;98463.16;10414262;28;20094;-67
2023/09/07 01:35:24;;;;;;;7.68;3.65;;;;;;;16.37;60.88;98469.06;10414657;28;20490;-67
2023/09/07 01:40:45;;;;;;;6.15;4.30;;;;;;;16.30;61.08;98468.72;10414045;28;20113;-67
2023/09/07 01:46:05;;;;;;;6.88;3.88;;;;;;;16.28;61.42;98465.78;10427609;28;20112;-67
2023/09/07 01:51:27;;;;;;;8.70;3.85;;;;;;;16.23;61.77;98475.38;10441102;28;20101;-66
2023/09/07 01:56:48;;;;;;;5.80;4.25;;;;;;;16.20;62.15;98476.59;10441410;28;20125;-67
2023/09/07 02:02:09;;;;;;;8.40;4.15;;;;;;;16.10;62.60;98473.19;10426329;28;20497;-67
2023/09/07 02:07:30;;;;;;;7.18;3.95;;;;;;;16.02;62.46;98475.56;10440803;28;20041;-67
2023/09/07 02:12:51;;;;;;;6.32;3.95;;;;;;;15.96;62.77;98475.22;10413250;28;20065;-67
2023/09/07 02:18:12;;;;;;;7.85;4.35;;;;;;;15.89;63.38;98470.56;10413485;28;20069;-67
2023/09/07 02:23:33;;;;;;;7.80;4.00;;;;;;;15.82;63.76;98471.56;10426738;28;20167;-67
2023/09/07 02:28:54;;;;;;;7.47;4.53;;;;;;;15.77;63.82;98475.50;10438481;28;20513;-66
2023/09/07 02:34:14;;;;;;;9.57;5.10;;;;;;;15.70;63.83;98472.31;10411105;28;20064;-67
2023/09/07 02:39:35;;;;;;;7.70;4.50;;;;;;;15.63;64.17;98483.81;10420262;28;20508;-67
2023/09/07 02:44:56;;;;;;;5.63;4.20;;;;;;;15.57;64.41;98478.53;10424958;28;20071;-67
2023/09/07 02:50:17;;;;;;;7.93;4.97;;;;;;;15.52;64.84;98481.72;10394302;28;20062;-67
2023/09/07 02:55:39;;;;;;;7.85;4.75;;;;;;;15.47;65.50;98480.75;10408545;28;20143;-67
2023/09/07 03:01:00;;;;;;;7.20;4.72;;;;;;;15.44;65.52;98481.97;10406360;28;20080;-67
2023/09/07 03:06:21;;;;;;;8.95;4.97;;;;;;;15.42;65.72;98488.19;10403025;28;20085;-66
2023/09/07 03:11:45;;;;;;;6.50;5.07;;;;;;;15.36;65.85;98484.31;10393445;28;20061;-66
2023/09/07 03:17:06;;;;;;;9.18;4.85;;;;;;;15.29;66.21;98488.09;10399260;28;20117;-67
2023/09/07 03:22:29;;;;;;;10.82;4.32;;;;;;;15.23;66.02;98491.25;10413139;28;20148;-65
2023/09/07 03:27:51;;;;;;;9.20;6.03;;;;;;;15.12;66.01;98487.09;10394421;28;20076;-64
2023/09/07 03:33:12;;;;;;;8.32;5.35;;;;;;;15.09;67.02;98485.50;10404678;28;20091;-65
2023/09/07 03:38:33;;;;;;;7.75;4.40;;;;;;;15.05;67.09;98487.31;10431533;28;20068;-66
2023/09/07 03:43:54;;;;;;;7.53;5.05;;;;;;;15.01;68.01;98493.44;10411415;28;20124;-65
2023/09/07 03:49:15;;;;;;;6.90;5.43;;;;;;;14.98;67.51;98496.75;10425377;28;20072;-66
2023/09/07 03:54:36;;;;;;;8.13;4.53;;;;;;;14.91;67.73;98506.84;10397886;28;20041;-65
2023/09/07 03:59:57;;;;;;;6.60;5.00;;;;;;;14.84;68.07;98502.19;10411414;28;20037;-66
2023/09/07 04:05:19;;;;;;;17.20;10.57;;;;;;;14.75;68.38;98497.41;10398535;28;20077;-66
2023/09/07 04:10:40;;;;;;;13.35;6.95;;;;;;;14.69;68.81;98497.03;10396628;28;20042;-65
2023/09/07 04:16:01;;;;;;;8.52;6.28;;;;;;;14.62;69.18;98501.53;10424085;28;20034;-66
2023/09/07 04:21:22;;;;;;;9.02;5.60;;;;;;;14.57;69.29;98500.53;10396974;28;20151;-65
2023/09/07 04:26:43;;;;;;;12.52;6.00;;;;;;;14.58;69.22;98496.41;10414948;28;20079;-65
2023/09/07 04:32:04;;;;;;;10.70;6.00;;;;;;;14.57;69.61;98499.78;10410003;28;20042;-67
2023/09/07 04:37:25;;;;;;;11.93;5.78;;;;;;;14.63;69.79;98502.25;10420799;28;20095;-67
2023/09/07 04:42:46;;;;;;;9.05;5.30;;;;;;;14.71;70.04;98497.16;10418879;28;20045;-64
2023/09/07 04:48:08;;;;;;;11.90;5.55;;;;;;;14.99;70.09;98509.44;10419426;28;20139;-63
2023/09/07 04:53:29;;;;;;;10.90;5.70;;;;;;;15.39;70.06;98500.69;10409464;28;20040;-65
2023/09/07 04:58:51;;;;;;;12.50;5.97;;;;;;;15.93;70.06;98493.34;10411049;28;20080;-65
2023/09/07 05:04:12;;;;;;;7.78;5.28;;;;;;;16.55;69.53;98493.38;10429524;28;20084;-65
2023/09/07 05:09:33;;;;;;;6.93;5.32;;;;;;;17.44;68.55;98496.75;10413275;28;20428;-64
2023/09/07 05:14:54;;;;;;;11.30;5.72;;;;;;;22.02;64.50;98501.88;10450696;28;20483;-65
2023/09/07 05:20:15;;;;;;;8.57;6.15;;;;;;;27.21;54.88;98517.38;10428283;28;20094;-65
2023/09/07 05:25:43;;;;;;;10.05;6.00;;;;;;;31.02;46.19;98509.00;10426881;28;20130;-66
2023/09/07 05:31:04;;;;;;;8.43;5.57;;;;;;;33.80;41.42;98517.84;10455066;28;20072;-66
2023/09/07 05:36:27;;;;;;;7.45;5.22;;;;;;;36.29;36.05;98522.84;10427971;28;20493;-67
2023/09/07 05:41:49;;;;;;;6.05;4.32;;;;;;;38.38;31.19;98521.50;10441510;28;20526;-67
2023/09/07 05:47:10;;;;;;;6.72;4.15;;;;;;;39.92;26.93;98526.34;10440126;28;20108;-67
2023/09/07 05:52:31;;;;;;;7.43;4.22;;;;;;;41.31;23.54;98536.03;10451920;28;20068;-67
2023/09/07 05:57:54;;;;;;;7.00;4.10;;;;;;;42.35;19.53;98531.25;10451818;28;20057;-69
2023/09/07 06:03:16;;;;;;;8.13;4.03;;;;;;;43.44;18.00;98530.19;10424503;28;20128;-70
2023/09/07 06:08:37;;;;;;;3.75;3.22;;;;;;;43.71;16.76;98536.72;10425902;28;20081;-70
2023/09/07 06:13:58;;;;;;;5.85;3.42;;;;;;;45.36;15.96;98536.13;10443876;28;20128;-71
2023/09/07 06:19:19;;;;;;;7.30;3.35;;;;;;;46.96;13.82;98529.53;10431350;28;20064;-72
2023/09/07 06:24:41;;;;;;;5.45;2.92;;;;;;;49.71;11.51;98532.97;10399386;28;20523;-72
2023/09/07 06:30:02;;;;;;;6.65;3.00;;;;;;;51.29;10.00;98527.25;10399599;28;20068;-71
2023/09/07 06:35:24;;;;;;;4.90;3.15;;;;;;;52.38;8.74;98525.00;10399100;28;20042;-72
2023/09/07 06:40:49;;;;;;;5.15;2.75;;;;;;;53.94;8.33;98530.31;10398857;28;20053;-72
2023/09/07 06:46:12;;;;;;;6.20;3.10;;;;;;;55.00;7.47;98529.34;10401019;28;20033;-72
2023/09/07 06:51:32;;;;;;;4.22;2.42;;;;;;;55.76;6.11;98536.47;10397918;28;20067;-72
2023/09/07 06:56:54;;;;;;;4.88;2.58;;;;;;;55.07;6.75;98539.09;10408424;28;20094;-72
2023/09/07 07:02:16;;;;;;;3.60;2.47;;;;;;;56.29;6.55;98539.81;10427367;28;20080;-72
2023/09/07 07:07:37;;;;;;;5.97;2.80;;;;;;;56.59;5.36;98539.47;10427132;28;20045;-72
2023/09/07 07:12:59;;;;;;;6.45;2.75;;;;;;;56.52;5.34;98541.72;10427302;28;20539;-72
2023/09/07 07:18:22;;;;;;;6.05;2.75;;;;;;;56.95;5.11;98537.00;10439231;28;20071;-72
2023/09/07 07:23:47;;;;;;;6.05;2.20;;;;;;;57.61;5.23;98537.75;10413440;28;20045;-72
2023/09/07 07:29:09;;;;;;;3.10;2.25;;;;;;;59.06;4.44;98541.16;10397732;28;20057;-72
2023/09/07 07:34:31;;;;;;;4.00;2.13;;;;;;;58.97;4.90;98539.13;10425027;28;20041;-72
2023/09/07 07:39:52;;;;;;;5.25;2.50;;;;;;;59.18;3.83;98548.69;10424843;28;20041;-72
2023/09/07 07:45:21;;;;;;;5.82;2.28;;;;;;;59.48;4.11;98538.97;10413921;28;20125;-72
2023/09/07 07:50:43;;;;;;;3.38;2.20;;;;;;;59.30;3.94;98544.22;10423469;28;20041;-72
2023/09/07 07:56:17;;;;;;;5.05;2.42;;;;;;;58.82;4.01;98536.44;10425131;28;20076;-72
2023/09/07 08:01:41;;;;;;;8.05;2.90;;;;;;;58.20;4.30;98545.25;10424141;28;20064;-71
2023/09/07 08:07:06;;;;;;;4.13;2.60;;;;;;;57.72;4.96;98537.28;10426070;28;20040;-71
2023/09/07 08:12:28;;;;;;;4.18;2.83;;;;;;;56.54;5.22;98542.19;10426364;28;20400;-72
2023/09/07 08:17:49;;;;;;;4.82;2.70;;;;;;;56.52;5.50;98533.41;10424529;28;20041;-71
2023/09/07 08:23:11;;;;;;;5.20;2.65;;;;;;;58.09;5.00;98524.75;10409289;28;20037;-71
2023/09/07 08:28:32;;;;;;;3.72;2.95;;;;;;;57.84;4.87;98529.91;10423033;28;20051;-72
2023/09/07 08:33:55;;;;;;;8.80;3.13;;;;;;;58.17;4.47;98517.09;10433564;28;20072;-72
2023/09/07 08:39:16;;;;;;;7.80;3.10;;;;;;;59.66;4.74;98529.31;10429271;28;20449;-72
2023/09/07 08:44:38;;;;;;;5.90;3.30;;;;;;;60.12;3.73;98528.81;10409197;28;20057;-72
2023/09/07 08:49:59;;;;;;;9.95;4.18;;;;;;;60.02;3.52;98533.78;10409429;28;20034;-72
2023/09/07 08:55:20;;;;;;;9.85;4.65;;;;;;;59.60;4.14;98518.72;10409443;28;20070;-71
2023/09/07 09:00:43;;;;;;;5.72;4.15;;;;;;;60.21;4.13;98519.47;10406078;28;20483;-71
2023/09/07 09:06:05;;;;;;;6.60;4.43;;;;;;;59.26;3.90;98520.59;10376902;28;20077;-72
2023/09/07 09:11:27;;;;;;;;;;;;;;;59.72;3.97;98516.50;10401151;28;20492;-71
2023/09/07 09:16:52;;;;;;;6.22;5.00;;;;;;;60.11;4.22;98527.44;10416185;28;19920;-71
2023/09/07 09:22:13;;;;;;;6.18;5.57;;;;;;;58.99;4.17;98511.81;10388358;28;20159;-72
2023/09/07 09:27:33;;;;;;;6.07;5.57;;;;;;;58.22;4.83;98512.00;10419458;28;20514;-72
2023/09/07 09:32:55;;;;;;;7.35;5.03;;;;;;;57.73;5.23;98511.66;10432429;28;20287;-72
2023/09/07 09:38:16;;;;;;;5.78;5.10;;;;;;;58.62;4.17;98499.78;10441544;28;20051;-72
2023/09/07 09:43:38;;;;;;;6.45;5.85;;;;;;;57.90;4.55;98505.16;10427823;28;20052;-71
2023/09/07 09:48:59;;;;;;;6.70;5.50;;;;;;;57.51;5.04;98493.91;10427578;28;20418;-72
2023/09/07 09:54:22;;;;;;;5.85;5.28;;;;;;;56.76;5.57;98494.09;10423739;28;20053;-72
2023/09/07 09:59:44;;;;;;;5.13;4.63;;;;;;;56.04;5.73;98479.53;10427524;28;20036;-72
2023/09/07 10:05:07;;;;;;;5.35;4.85;;;;;;;56.52;5.50;98484.78;10432634;28;20167;-72
2023/09/07 10:10:32;;;;;;;8.00;4.20;;;;;;;55.54;5.52;98471.41;10404254;28;20545;-72
2023/09/07 10:16:01;;;;;;;4.40;3.75;;;;;;;55.32;5.99;98470.78;10399353;28;20049;-71
2023/09/07 10:21:25;;;;;;;6.20;3.80;;;;;;;55.58;5.66;98467.97;10387914;28;20046;-72
2023/09/07 10:26:57;;;;;;;7.55;3.50;;;;;;;55.17;5.94;98470.88;10407954;28;20045;-71
2023/09/07 10:32:19;;;;;;;3.65;2.70;;;;;;;55.04;5.63;98469.16;10422134;28;20049;-72
2023/09/07 10:37:40;;;;;;;4.28;2.97;;;;;;;55.32;6.18;98461.81;10455176;28;20049;-71
2023/09/07 10:43:04;;;;;;;4.57;2.70;;;;;;;55.03;6.33;98461.81;10445178;28;20438;-73
2023/09/07 10:48:25;;;;;;;8.07;2.60;;;;;;;54.54;6.49;98460.16;10444894;28;20056;-72
2023/09/07 10:53:55;;;;;;;2.55;2.17;;;;;;;53.55;7.01;98458.81;10430846;28;20064;-72
2023/09/07 10:59:16;;;;;;;4.00;2.05;;;;;;;52.22;7.54;98455.75;10421987;28;20502;-73
2023/09/07 11:04:37;;;;;;;2.78;2.05;;;;;;;51.65;7.06;98451.97;10370699;28;20066;-72
2023/09/07 11:09:58;;;;;;;4.00;2.10;;;;;;;50.60;8.88;98442.47;10399976;28;20045;-72
2023/09/07 11:15:19;;;;;;;5.30;2.05;;;;;;;52.27;7.53;98447.81;10389720;28;20034;-72
2023/09/07 11:20:40;;;;;;;4.00;2.20;;;;;;;52.52;7.18;98443.28;10383937;28;20049;-71
2023/09/07 11:26:04;;;;;;;5.18;1.83;;;;;;;52.15;7.50;98425.84;10389319;28;20049;-72
2023/09/07 11:31:26;;;;;;;4.68;1.88;;;;;;;51.51;7.78;98433.13;10383357;28;20041;-71
2023/09/07 11:36:49;;;;;;;3.45;1.90;;;;;;;50.51;7.87;98429.91;10385213;28;20041;-71
2023/09/07 11:42:10;;;;;;;4.35;2.03;;;;;;;50.28;7.48;98419.19;10398475;28;20046;-72
2023/09/07 11:47:31;;;;;;;5.13;2.72;;;;;;;44.15;11.92;98441.00;10382116;28;20056;-72
2023/09/07 11:52:51;;;;;;;3.63;2.45;;;;;;;38.63;16.57;98437.56;10418507;28;20476;-71
2023/09/07 11:58:13;;;;;;;4.78;2.72;;;;;;;36.29;18.53;98438.56;10404387;28;20068;-71
2023/09/07 12:03:34;;;;;;;5.28;3.00;;;;;;;34.57;21.21;98440.69;10437738;28;20049;-69
2023/09/07 12:09:03;;;;;;;8.48;2.80;;;;;;;33.12;22.79;98439.13;10445349;28;20051;-69
2023/09/07 12:14:24;;;;;;;6.85;3.10;;;;;;;32.91;23.44;98452.34;10459563;28;20052;-69
2023/09/07 12:19:45;;;;;;;7.65;3.08;;;;;;;32.45;23.38;98449.16;10459221;28;20447;-68
2023/09/07 12:25:07;;;;;;;5.38;3.70;;;;;;;31.87;25.20;98433.69;10404551;28;20048;-69
2023/09/07 12:30:35;;;;;;;4.00;2.75;;;;;;;31.31;26.21;98429.66;10411953;28;20044;-69
2023/09/07 12:35:56;;;;;;;4.30;2.90;;;;;;;31.37;25.87;98423.16;10422022;28;20034;-69
2023/09/07 12:41:17;;;;;;;6.78;3.30;;;;;;;31.62;25.55;98415.06;10427474;28;20052;-69
2023/09/07 12:46:39;;;;;;;5.63;3.30;;;;;;;31.23;26.05;98412.38;10430016;28;20553;-69
2023/09/07 12:52:00;;;;;;;6.07;3.07;;;;;;;31.22;26.02;98410.22;10407350;28;20564;-69
2023/09/07 12:57:22;;;;;;;5.10;2.80;;;;;;;30.94;26.42;98405.97;10429874;28;20127;-69
2023/09/07 13:02:43;;;;;;;10.50;3.35;;;;;;;31.03;25.86;98410.28;10420849;28;20104;-69
2023/09/07 13:08:06;;;;;;;5.00;2.92;;;;;;;30.28;26.80;98401.03;10421441;28;20037;-69
2023/09/07 13:13:30;;;;;;;6.03;3.50;;;;;;;30.21;28.02;98388.81;10422398;28;20034;-69
2023/09/07 13:18:51;;;;;;;4.28;3.08;;;;;;;30.02;27.97;98404.63;10407811;28;20057;-68
2023/09/07 13:24:12;;;;;;;5.40;3.23;;;;;;;29.83;28.21;98401.72;10408082;28;20048;-69
2023/09/07 13:29:34;;;;;;;5.80;2.78;;;;;;;29.82;28.33;98400.28;10402260;28;20174;-69
2023/09/07 13:34:55;;;;;;;17.10;3.37;;;;;;;29.82;28.23;98394.53;10416358;28;20099;-68
2023/09/07 13:40:16;;;;;;;5.82;3.28;;;;;;;29.48;28.67;98392.31;10400131;28;20714;-69
2023/09/07 13:45:36;;;;;;;7.72;3.05;;;;;;;29.11;29.52;98384.97;10400149;28;20041;-68
2023/09/07 13:50:58;;;;;;;8.90;2.88;;;;;;;29.39;29.60;98381.47;10372693;28;20047;-69
2023/09/07 13:56:19;;;;;;;3.87;3.10;;;;;;;29.53;29.21;98382.28;10399907;28;20095;-68
2023/09/07 14:01:40;;;;;;;3.77;2.73;;;;;;;29.19;29.68;98379.97;10385759;28;20096;-68
2023/09/07 14:07:01;;;;;;;5.60;2.80;;;;;;;29.08;29.32;98367.72;10399436;28;20041;-69
2023/09/07 14:12:22;;;;;;;7.22;3.00;;;;;;;29.16;29.79;98364.16;10399185;28;20041;-69
2023/09/07 14:17:43;;;;;;;6.50;3.20;;;;;;;29.14;30.07;98357.66;10414377;28;20037;-70
2023/09/07 14:23:04;;;;;;;7.80;3.03;;;;;;;28.79;30.11;98358.25;10385789;28;20041;-69
2023/09/07 14:28:26;;;;;;;5.38;3.10;;;;;;;28.92;29.91;98352.56;10385460;28;20118;-69
2023/09/07 14:33:46;;;;;;;5.22;2.85;;;;;;;28.96;30.06;98347.56;10413675;28;20037;-69
2023/09/07 14:39:08;;;;;;;4.72;2.50;;;;;;;28.80;30.45;98351.06;10412747;28;20054;-69
2023/09/07 14:44:29;;;;;;;4.35;2.83;;;;;;;28.57;31.01;98348.78;10371677;28;20468;-69
2023/09/07 14:49:53;;;;;;;5.47;2.70;;;;;;;28.50;31.12;98342.28;10385232;28;20095;-69
2023/09/07 14:55:17;;;;;;;6.88;2.78;;;;;;;28.39;31.02;98346.53;10384800;28;20038;-69
2023/09/07 15:00:38;;;;;;;6.97;3.13;;;;;;;28.21;31.65;98347.81;10352456;28;20046;-69
2023/09/07 15:05:59;;;;;;;4.22;2.72;;;;;;;28.05;31.21;98339.09;10382132;28;20057;-69
2023/09/07 15:11:21;;;;;;;4.15;2.88;;;;;;;28.01;31.88;98338.34;10397314;28;20113;-69
2023/09/07 15:16:42;;;;;;;7.28;3.17;;;;;;;27.80;32.54;98337.47;10425491;28;20041;-69
2023/09/07 15:22:04;;;;;;;4.45;3.15;;;;;;;27.77;32.91;98330.25;10432012;28;20136;-69
2023/09/07 15:27:25;;;;;;;4.40;2.72;;;;;;;27.77;32.55;98327.38;10446717;28;20377;-69
2023/09/07 15:32:46;;;;;;;6.53;3.15;;;;;;;27.65;32.85;98334.47;10446145;28;20060;-69
2023/09/07 15:38:07;;;;;;;6.32;3.10;;;;;;;27.42;33.74;98335.66;10432437;28;20056;-69
2023/09/07 15:43:28;;;;;;;10.55;3.03;;;;;;;27.42;33.94;98334.94;10432611;28;20037;-68
2023/09/07 15:48:49;;;;;;;6.68;3.05;;;;;;;27.36;34.03;98335.59;10445382;28;20056;-67
2023/09/07 15:54:10;;;;;;;4.97;3.47;;;;;;;27.26;34.03;98333.34;10431539;28;20041;-64
2023/09/07 15:59:31;;;;;;;4.95;2.95;;;;;;;27.09;34.33;98343.88;10460116;28;20132;-65
2023/09/07 16:04:53;;;;;;;9.90;2.90;;;;;;;26.91;34.48;98337.19;10459619;28;20052;-64
2023/09/07 16:10:14;;;;;;;7.83;2.83;;;;;;;26.77;34.99;98340.63;10459342;28;20033;-65
2023/09/07 16:15:35;;;;;;;4.28;2.83;;;;;;;26.65;35.45;98334.75;10444889;28;20483;-66
2023/09/07 16:20:56;;;;;;;6.68;2.75;;;;;;;26.52;35.88;98334.56;10443506;28;20040;-65
2023/09/07 16:26:17;;;;;;;5.63;3.25;;;;;;;26.41;35.56;98341.56;10430332;28;20072;-66
2023/09/07 16:31:38;;;;;;;6.35;3.40;;;;;;;26.32;35.65;98339.97;10445297;28;20041;-66
2023/09/07 16:36:59;;;;;;;6.53;2.95;;;;;;;26.18;36.26;98337.63;10443813;28;20045;-66
2023/09/07 16:42:20;;;;;;;5.03;3.05;;;;;;;26.00;36.87;98339.50;10430074;28;20055;-67
2023/09/07 16:47:42;;;;;;;4.60;3.13;;;;;;;25.85;36.99;98336.38;10443682;28;20049;-67
2023/09/07 16:53:03;;;;;;;7.43;3.50;;;;;;;25.71;37.13;98336.16;10454922;28;20045;-66
2023/09/07 16:58:24;;;;;;;7.20;3.58;;;;;;;25.58;37.42;98340.94;10438228;28;20044;-67
2023/09/07 17:04:01;;;;;;;6.20;3.53;;;;;;;25.42;37.24;98334.19;10421272;28;20144;-65
2023/09/07 17:09:22;;;;;;;6.78;3.30;;;;;;;25.25;37.60;98341.72;10416435;28;20041;-68
2023/09/07 17:14:44;;;;;;;10.50;3.63;;;;;;;25.04;38.15;98338.50;10401385;28;20041;-67
2023/09/07 17:20:08;;;;;;;4.38;2.83;;;;;;;24.86;38.46;98340.22;10432774;28;20041;-66
2023/09/07 17:25:32;;;;;;;4.97;3.10;;;;;;;24.71;38.40;98348.50;10428487;28;20045;-64
2023/09/07 17:30:53;;;;;;;5.05;3.10;;;;;;;24.54;38.33;98346.69;10441469;28;20048;-63
2023/09/07 17:36:15;;;;;;;6.43;3.53;;;;;;;24.36;38.73;98341.31;10455642;28;20045;-64
2023/09/07 17:41:38;;;;;;;7.80;3.93;;;;;;;24.16;38.92;98347.25;10434270;28;20065;-67
2023/09/07 17:47:00;;;;;;;5.65;3.03;;;;;;;23.99;38.88;98357.53;10373484;28;20699;-64
2023/09/07 17:52:23;;;;;;;6.63;3.00;;;;;;;23.86;38.82;98369.34;10407710;28;20129;-65
2023/09/07 17:57:43;;;;;;;7.53;3.03;;;;;;;23.72;38.88;98351.84;10400029;28;20057;-66
2023/09/07 18:03:04;;;;;;;7.82;2.80;;;;;;;23.62;38.83;98367.28;10414144;28;20050;-64
2023/09/07 18:08:25;;;;;;;4.13;3.00;;;;;;;23.53;38.43;98370.59;10399658;28;20428;-65
2023/09/07 18:13:46;;;;;;;5.78;2.50;;;;;;;23.48;38.03;98369.75;10381760;28;20045;-63
2023/09/07 18:19:16;;;;;;;4.30;2.58;;;;;;;23.49;37.11;98374.06;10373427;28;20104;-63
2023/09/07 18:24:37;;;;;;;4.07;2.33;;;;;;;23.35;36.70;98376.50;10373594;28;20124;-63
2023/09/07 18:30:00;;;;;;;5.88;2.40;;;;;;;23.31;36.37;98370.72;10358512;28;20129;-63
2023/09/07 18:35:21;;;;;;;;;;;;;;;23.24;36.06;98386.19;10359179;28;20113;-64
2023/09/07 18:40:44;;;;;;;4.00;2.03;;;;;;;23.20;35.71;98383.22;10344853;28;19929;-65
2023/09/07 18:46:08;;;;;;;6.28;2.40;;;;;;;23.06;35.79;98398.50;10366287;28;20073;-64
2023/09/07 18:51:29;;;;;;;4.88;2.03;;;;;;;23.03;35.60;98388.47;10405504;28;20128;-64
2023/09/07 18:56:50;;;;;;;4.30;2.40;;;;;;;22.92;36.00;98400.94;10419900;28;20399;-66
2023/09/07 19:02:13;;;;;;;4.45;2.55;;;;;;;22.75;36.98;98393.28;10413639;28;20499;-64
2023/09/07 19:07:34;;;;;;;6.32;2.53;;;;;;;22.61;37.26;98404.25;10447889;28;20042;-65
2023/09/07 19:12:55;;;;;;;6.40;2.70;;;;;;;22.43;37.99;98396.63;10433391;28;20040;-64
2023/09/07 19:18:17;;;;;;;5.68;2.65;;;;;;;22.33;38.60;98410.50;10447440;28;20064;-63
2023/09/07 19:23:38;;;;;;;6.80;2.75;;;;;;;22.17;39.91;98402.19;10461799;28;20073;-64
2023/09/07 19:29:02;;;;;;;7.53;3.33;;;;;;;22.06;41.14;98405.34;10461640;28;20048;-63
2023/09/07 19:34:25;;;;;;;7.43;2.90;;;;;;;21.93;41.84;98404.94;10461219;28;20065;-63
2023/09/07 19:39:46;;;;;;;7.38;3.00;;;;;;;21.79;43.79;98393.09;10461260;28;20056;-64
2023/09/07 19:45:07;;;;;;;5.60;3.10;;;;;;;21.69;43.63;98395.59;10432456;28;20479;-66
2023/09/07 19:50:28;;;;;;;9.73;3.35;;;;;;;21.60;45.40;98391.00;10444693;28;20585;-70
2023/09/07 19:55:49;;;;;;;8.77;3.22;;;;;;;21.51;46.52;98392.84;10442257;28;20497;-70
2023/09/07 20:01:15;;;;;;;7.45;3.33;;;;;;;21.40;48.37;98391.75;10460324;28;20120;-70
2023/09/07 20:06:36;;;;;;;7.22;3.55;;;;;;;21.28;47.30;98396.28;10390532;28;20376;-70
2023/09/07 20:11:59;;;;;;;9.25;3.45;;;;;;;21.21;47.91;98386.06;10390166;28;20045;-69
2023/09/07 20:17:19;;;;;;;;;;;;;;;21.11;49.36;98398.50;10376185;28;20095;-69
2023/09/07 20:22:40;;;;;;;6.25;3.65;;;;;;;21.00;49.82;98393.84;10410524;28;19928;-69
2023/09/07 20:28:01;;;;;;;10.27;3.72;;;;;;;20.87;49.56;98394.78;10392899;28;20057;-69
2023/09/07 20:33:22;;;;;;;5.90;3.40;;;;;;;20.75;50.65;98386.56;10368887;28;20109;-70
2023/09/07 20:38:43;;;;;;;6.13;3.53;;;;;;;20.71;50.56;98386.38;10385400;28;20042;-69
2023/09/07 20:44:04;;;;;;;8.55;4.00;;;;;;;20.56;51.02;98390.09;10382688;28;20472;-70
2023/09/07 20:49:25;;;;;;;8.50;3.20;;;;;;;20.44;51.08;98407.34;10381837;28;20561;-69
2023/09/07 20:54:46;;;;;;;7.10;3.40;;;;;;;20.33;51.56;98399.06;10368819;28;20037;-70
2023/09/07 21:00:09;;;;;;;7.47;3.65;;;;;;;20.28;51.61;98393.25;10352950;28;20089;-70
2023/09/07 21:05:30;;;;;;;6.47;3.73;;;;;;;20.22;52.78;98410.00;10395493;28;20053;-70
2023/09/07 21:10:51;;;;;;;6.70;3.83;;;;;;;20.16;52.14;98403.34;10401834;28;20042;-70
2023/09/07 21:16:11;;;;;;;6.10;3.42;;;;;;;20.09;52.54;98396.72;10401458;28;20052;-69
2023/09/07 21:21:32;;;;;;;5.82;3.47;;;;;;;20.01;52.37;98405.63;10401540;28;20076;-69
2023/09/07 21:26:54;;;;;;;7.57;3.50;;;;;;;19.95;52.42;98396.13;10401100;28;20045;-70
2023/09/07 21:32:15;;;;;;;5.32;3.72;;;;;;;19.84;52.66;98402.75;10373981;28;20556;-70
2023/09/07 21:37:36;;;;;;;6.78;3.25;;;;;;;19.72;53.46;98395.22;10401003;28;20061;-69
2023/09/07 21:42:57;;;;;;;7.00;3.63;;;;;;;19.62;53.36;98397.63;10400599;28;20113;-69
2023/09/07 21:48:18;;;;;;;5.57;3.55;;;;;;;19.52;53.93;98402.09;10400893;28;20069;-70
2023/09/07 21:53:39;;;;;;;6.35;3.42;;;;;;;19.38;53.97;98399.38;10386604;28;20072;-69
2023/09/07 21:59:00;;;;;;;9.27;3.75;;;;;;;19.28;54.52;98393.28;10400404;28;20049;-70
2023/09/07 22:04:21;;;;;;;7.80;3.70;;;;;;;19.14;54.85;98402.59;10399999;28;20081;-69
2023/09/07 22:09:42;;;;;;;5.47;3.33;;;;;;;19.07;55.32;98391.66;10400042;28;20120;-69
2023/09/07 22:15:04;;;;;;;8.43;3.50;;;;;;;18.97;55.15;98394.75;10453900;28;20126;-70
2023/09/07 22:20:25;;;;;;;6.30;3.50;;;;;;;18.84;55.52;98398.41;10448153;28;20048;-70
2023/09/07 22:25:47;;;;;;;5.97;3.53;;;;;;;18.73;55.76;98394.41;10440490;28;20069;-69
2023/09/07 22:31:08;;;;;;;6.78;3.67;;;;;;;18.58;56.07;98389.41;10463053;28;20045;-70
2023/09/07 22:36:28;;;;;;;7.47;3.83;;;;;;;18.46;56.24;98389.59;10463193;28;20068;-70
2023/09/07 22:41:49;;;;;;;7.45;3.80;;;;;;;18.38;56.82;98392.03;10448718;28;20553;-69
2023/09/07 22:47:10;;;;;;;6.38;3.20;;;;;;;18.26;57.36;98380.16;10448592;28;20068;-69
2023/09/07 22:52:31;;;;;;;6.35;3.80;;;;;;;18.15;57.17;98384.59;10448233;28;20069;-70
2023/09/07 22:57:52;;;;;;;9.13;3.70;;;;;;;18.07;57.60;98389.13;10462518;28;20037;-69
2023/09/07 23:03:13;;;;;;;4.95;3.28;;;;;;;17.97;57.82;98386.53;10448087;28;20080;-70
2023/09/07 23:08:34;;;;;;;7.20;3.88;;;;;;;17.86;58.19;98382.50;10462392;28;20079;-69
2023/09/07 23:13:56;;;;;;;7.82;3.58;;;;;;;17.82;58.56;98379.44;10461465;28;20068;-70
2023/09/07 23:19:16;;;;;;;8.23;3.72;;;;;;;17.73;58.62;98380.41;10461289;28;20064;-70
2023/09/07 23:24:37;;;;;;;8.00;4.07;;;;;;;17.65;58.92;98382.81;10461107;28;20555;-69
2023/09/07 23:30:01;;;;;;;7.88;3.53;;;;;;;17.57;59.46;98379.59;10460485;28;20120;-70
2023/09/07 23:35:22;;;;;;;7.03;4.35;;;;;;;17.54;59.67;98381.56;10433817;28;20441;-69
2023/09/07 23:40:42;;;;;;;6.55;3.58;;;;;;;17.48;59.48;98389.00;10460387;28;20073;-69
2023/09/07 23:46:03;;;;;;;5.50;3.55;;;;;;;17.41;59.86;98391.53;10446182;28;20123;-69
2023/09/07 23:51:24;;;;;;;8.02;3.58;;;;;;;17.37;60.02;98396.97;10418410;28;20072;-69
2023/09/07 23:56:45;;;;;;;7.63;3.80;;;;;;;17.26;60.21;98397.06;10445801;28;20065;-70
